Time;durP1;ratioP1;P1;durP2;ratioP2;P2;SDS_P1;SDS_P2;PMS_P1;PMS_P2;Temp;Humidity;BMP_temperature;BMP_pressure;BME280_temperature;BME280_humidity;BME280_pressure;Samples;Min_cycle;Max_cycle;Signal;HPM_P1;HPM_P2
2022/06/22 00:00:29;;;;;;;;;;;;;;;;;;5029775;28;20281;-77
2022/06/22 00:02:55;;;;;;;;;;;;;;;;;;5031997;28;20285;-77
2022/06/22 00:05:21;;;;;;;;;;;;;;;;;;5031733;28;19916;-77
2022/06/22 00:07:47;;;;;;;;;;;;;;;;;;5031616;28;19910;-77
2022/06/22 00:10:13;;;;;;;;;;;;;;;;;;5031070;28;19912;-77
2022/06/22 00:12:39;;;;;;;;;;;;;;;;;;5031698;28;20316;-77
2022/06/22 00:15:05;;;;;;;;;;;;;;;;;;5030232;28;19909;-77
2022/06/22 00:17:31;;;;;;;;;;;;;;;;;;5030380;28;19909;-77
2022/06/22 00:19:56;;;;;;;;;;;;;;;;;;5032216;28;19959;-77
2022/06/22 00:22:24;;;;;;;;;;;;;;;;;;5031798;28;20332;-77
2022/06/22 00:24:50;;;;;;;;;;;;;;;;;;5031586;28;19913;-78
2022/06/22 00:27:16;;;;;;;;;;;;;;;;;;5031671;28;20011;-77
2022/06/22 00:29:42;;;;;;;;;;;;;;;;;;5030795;28;20012;-77
2022/06/22 00:32:08;;;;;;;;;;;;;;;;;;5031675;28;19917;-77
2022/06/22 00:34:34;;;;;;;;;;;;;;;;;;5031406;28;19966;-77
2022/06/22 00:37:00;;;;;;;;;;;;;;;;;;5031246;28;19913;-77
2022/06/22 00:39:26;;;;;;;;;;;;;;;;;;5030139;28;19909;-77
2022/06/22 00:41:52;;;;;;;;;;;;;;;;;;5031833;28;19916;-77
2022/06/22 00:44:18;;;;;;;;;;;;;;;;;;5031293;28;20525;-77
2022/06/22 00:46:44;;;;;;;;;;;;;;;;;;5031039;28;19978;-77
2022/06/22 00:49:09;;;;;;;;;;;;;;;;;;5030665;28;19913;-77
2022/06/22 00:51:35;;;;;;;;;;;;;;;;;;5031303;28;19909;-77
2022/06/22 00:54:01;;;;;;;;;;;;;;;;;;5031119;28;20276;-77
2022/06/22 00:56:27;;;;;;;;;;;;;;;;;;5031114;28;19913;-77
2022/06/22 00:58:53;;;;;;;;;;;;;;;;;;5030521;28;19910;-77
2022/06/22 01:01:19;;;;;;;;;;;;;;;;;;5031039;28;19913;-77
2022/06/22 01:03:45;;;;;;;;;;;;;;;;;;5029738;28;20448;-77
2022/06/22 01:06:11;;;;;;;;;;;;;;;;;;5031290;28;20360;-77
2022/06/22 01:08:37;;;;;;;;;;;;;;;;;;5030296;28;19913;-77
2022/06/22 01:11:03;;;;;;;;;;;;;;;;;;5030884;28;19910;-77
2022/06/22 01:13:28;;;;;;;;;;;;;;;;;;5030975;28;19913;-77
2022/06/22 01:15:54;;;;;;;;;;;;;;;;;;5030923;28;20384;-77
2022/06/22 01:18:20;;;;;;;;;;;;;;;;;;5030583;28;19909;-78
2022/06/22 01:20:46;;;;;;;;;;;;;;;;;;5029271;28;19913;-77
2022/06/22 01:23:12;;;;;;;;;;;;;;;;;;5029733;28;19905;-77
2022/06/22 01:25:38;;;;;;;;;;;;;;;;;;5029610;28;19909;-77
2022/06/22 01:28:05;;;;;;;;;;;;;;;;;;5030832;28;19931;-77
2022/06/22 01:30:31;;;;;;;;;;;;;;;;;;5028804;28;19915;-77
2022/06/22 01:32:57;;;;;;;;;;;;;;;;;;5030834;28;19917;-77
2022/06/22 01:35:23;;;;;;;;;;;;;;;;;;5030884;28;20008;-77
2022/06/22 01:37:49;;;;;;;;;;;;;;;;;;5030935;28;20379;-77
2022/06/22 01:40:15;;;;;;;;;;;;;;;;;;5031296;28;20000;-77
2022/06/22 01:42:40;;;;;;;;;;;;;;;;;;5031229;28;20016;-78
2022/06/22 01:45:06;;;;;;;;;;;;;;;;;;5031361;28;19948;-78
2022/06/22 01:47:32;;;;;;;;;;;;;;;;;;5031801;28;19960;-78
2022/06/22 01:49:58;;;;;;;;;;;;;;;;;;5033030;28;19909;-77
2022/06/22 01:52:24;;;;;;;;;;;;;;;;;;5033109;28;20362;-78
2022/06/22 01:54:50;;;;;;;;;;;;;;;;;;5034150;28;19917;-77
2022/06/22 01:57:16;;;;;;;;;;;;;;;;;;5034165;28;19909;-77
2022/06/22 01:59:42;;;;;;;;;;;;;;;;;;5033583;28;19962;-77
2022/06/22 02:02:08;;;;;;;;;;;;;;;;;;5035539;28;19920;-77
2022/06/22 02:04:34;;;;;;;;;;;;;;;;;;5034241;28;19909;-77
2022/06/22 02:09:45;;;;;;;;;;;;;;;;;;5033702;28;20467;-77
2022/06/22 02:12:20;;;;;;;;;;;;;;;;;;5033917;28;19909;-77
2022/06/22 02:14:46;;;;;;;;;;;;;;;;;;5033686;28;20274;-77
2022/06/22 02:17:12;;;;;;;;;;;;;;;;;;5033777;28;19916;-78
2022/06/22 02:19:38;;;;;;;;;;;;;;;;;;5035155;28;19913;-78
2022/06/22 02:22:04;;;;;;;;;;;;;;;;;;5035787;28;19913;-77
2022/06/22 02:24:29;;;;;;;;;;;;;;;;;;5035096;28;20276;-78
2022/06/22 02:26:55;;;;;;;;;;;;;;;;;;5035100;28;19963;-77
2022/06/22 02:29:21;;;;;;;;;;;;;;;;;;5034008;28;20366;-78
2022/06/22 02:31:47;;;;;;;;;;;;;;;;;;5034244;28;20019;-78
2022/06/22 02:34:13;;;;;;;;;;;;;;;;;;5034075;28;19913;-77
2022/06/22 02:36:39;;;;;;;;;;;;;;;;;;5033206;28;19963;-78
2022/06/22 02:39:05;;;;;;;;;;;;;;;;;;5033031;28;20537;-77
2022/06/22 02:44:34;;;;;;;;;;;;;;;;;;5033589;28;19963;-78
2022/06/22 02:47:00;;;;;;;;;;;;;;;;;;5032258;28;19996;-77
2022/06/22 02:49:26;;;;;;;;;;;;;;;;;;5032718;28;20055;-78
2022/06/22 02:51:52;;;;;;;;;;;;;;;;;;5032422;28;19909;-78
2022/06/22 02:54:18;;;;;;;;;;;;;;;;;;5032215;28;19913;-77
2022/06/22 02:56:44;;;;;;;;;;;;;;;;;;5032524;28;20384;-77
2022/06/22 02:59:10;;;;;;;;;;;;;;;;;;5031749;28;19916;-77
2022/06/22 03:01:36;;;;;;;;;;;;;;;;;;5033558;28;20320;-77
2022/06/22 03:04:02;;;;;;;;;;;;;;;;;;5034423;28;19964;-79
2022/06/22 03:06:28;;;;;;;;;;;;;;;;;;5033934;28;20098;-78
2022/06/22 03:08:53;;;;;;;;;;;;;;;;;;5033587;28;19916;-79
2022/06/22 03:11:19;;;;;;;;;;;;;;;;;;5034225;28;19960;-79
2022/06/22 03:13:45;;;;;;;;;;;;;;;;;;5033720;28;20440;-77
2022/06/22 03:16:11;;;;;;;;;;;;;;;;;;5033786;28;20051;-78
2022/06/22 03:18:37;;;;;;;;;;;;;;;;;;5033253;28;20074;-77
2022/06/22 03:21:03;;;;;;;;;;;;;;;;;;5034115;28;19955;-78
2022/06/22 03:23:29;;;;;;;;;;;;;;;;;;5034092;28;20325;-79
2022/06/22 03:25:55;;;;;;;;;;;;;;;;;;5033552;28;19916;-78
2022/06/22 03:28:21;;;;;;;;;;;;;;;;;;5033555;28;19909;-76
2022/06/22 03:30:47;;;;;;;;;;;;;;;;;;5033274;28;20365;-77
2022/06/22 03:33:12;;;;;;;;;;;;;;;;;;5032066;28;19913;-78
2022/06/22 03:35:38;;;;;;;;;;;;;;;;;;5032218;28;19976;-80
2022/06/22 03:38:04;;;;;;;;;;;;;;;;;;5032188;28;19956;-80
2022/06/22 03:40:30;;;;;;;;;;;;;;;;;;5033103;28;19917;-77
2022/06/22 03:42:56;;;;;;;;;;;;;;;;;;5032299;28;19909;-80
2022/06/22 03:45:22;;;;;;;;;;;;;;;;;;5033081;28;19913;-79
2022/06/22 03:47:48;;;;;;;;;;;;;;;;;;5033119;28;20265;-80
2022/06/22 03:50:14;;;;;;;;;;;;;;;;;;5032326;28;19910;-77
2022/06/22 03:52:42;;;;;;;;;;;;;;;;;;5032253;28;20403;-79
2022/06/22 03:55:07;;;;;;;;;;;;;;;;;;5033041;28;20000;-78
2022/06/22 03:57:33;;;;;;;;;;;;;;;;;;5033323;28;20024;-77
2022/06/22 03:59:59;;;;;;;;;;;;;;;;;;5033056;28;20368;-78
2022/06/22 04:02:25;;;;;;;;;;;;;;;;;;5033489;28;19909;-77
2022/06/22 04:04:51;;;;;;;;;;;;;;;;;;5032046;28;19909;-79
2022/06/22 04:07:17;;;;;;;;;;;;;;;;;;5033193;28;19921;-78
2022/06/22 04:09:43;;;;;;;;;;;;;;;;;;5032839;28;19963;-78
2022/06/22 04:12:09;;;;;;;;;;;;;;;;;;5031273;28;19913;-79
2022/06/22 04:14:35;;;;;;;;;;;;;;;;;;5032191;28;19913;-78
2022/06/22 04:17:01;;;;;;;;;;;;;;;;;;5031707;28;19913;-78
2022/06/22 04:19:27;;;;;;;;;;;;;;;;;;5032287;28;19910;-79
2022/06/22 04:21:53;;;;;;;;;;;;;;;;;;5032726;28;20004;-77
2022/06/22 04:24:18;;;;;;;;;;;;;;;;;;5034627;28;20011;-77
2022/06/22 04:26:44;;;;;;;;;;;;;;;;;;5033614;28;19995;-77
2022/06/22 04:29:10;;;;;;;;;;;;;;;;;;5031356;28;19941;-77
2022/06/22 04:31:36;;;;;;;;;;;;;;;;;;5031618;28;20010;-77
2022/06/22 04:34:02;;;;;;;;;;;;;;;;;;5031336;28;19932;-77
2022/06/22 04:36:28;;;;;;;;;;;;;;;;;;5033437;28;19969;-77
2022/06/22 04:38:54;;;;;;;;;;;;;;;;;;5031837;28;19963;-78
2022/06/22 04:41:20;;;;;;;;;;;;;;;;;;5031861;28;19920;-77
2022/06/22 04:43:47;;;;;;;;;;;;;;;;;;5031835;28;20347;-77
2022/06/22 04:46:13;;;;;;;;;;;;;;;;;;5032648;28;19916;-77
2022/06/22 04:48:38;;;;;;;;;;;;;;;;;;5031080;28;19923;-78
2022/06/22 04:51:04;;;;;;;;;;;;;;;;;;5031599;28;19917;-79
2022/06/22 04:53:30;;;;;;;;;;;;;;;;;;5031594;28;19955;-77
2022/06/22 04:55:56;;;;;;;;;;;;;;;;;;5030454;28;19979;-79
2022/06/22 04:58:22;;;;;;;;;;;;;;;;;;5030113;28;19913;-78
2022/06/22 05:00:48;;;;;;;;;;;;;;;;;;5031297;28;19916;-78
2022/06/22 05:03:14;;;;;;;;;;;;;;;;;;5031703;28;19913;-78
2022/06/22 05:05:40;;;;;;;;;;;;;;;;;;5030368;28;20350;-78
2022/06/22 05:08:06;;;;;;;;;;;;;;;;;;5032106;28;19917;-77
2022/06/22 05:10:32;;;;;;;;;;;;;;;;;;5035029;28;19909;-78
2022/06/22 05:12:58;;;;;;;;;;;;;;;;;;5035575;28;19920;-78
2022/06/22 05:15:23;;;;;;;;;;;;;;;;;;5037400;28;19916;-78
2022/06/22 05:17:49;;;;;;;;;;;;;;;;;;5033572;28;19913;-79
2022/06/22 05:20:15;;;;;;;;;;;;;;;;;;5030981;28;20004;-80
2022/06/22 05:22:41;;;;;;;;;;;;;;;;;;5031965;28;20463;-79
2022/06/22 05:25:08;;;;;;;;;;;;;;;;;;5033340;28;19913;-77
2022/06/22 05:27:34;;;;;;;;;;;;;;;;;;5034363;28;19909;-80
2022/06/22 05:30:00;;;;;;;;;;;;;;;;;;5033682;28;19920;-76
2022/06/22 05:32:26;;;;;;;;;;;;;;;;;;5035770;28;20373;-78
2022/06/22 05:34:52;;;;;;;;;;;;;;;;;;5035398;28;19913;-79
2022/06/22 05:37:18;;;;;;;;;;;;;;;;;;5034069;28;20564;-78
2022/06/22 05:39:44;;;;;;;;;;;;;;;;;;5034908;28;19916;-77
2022/06/22 05:42:10;;;;;;;;;;;;;;;;;;5034811;28;19968;-79
2022/06/22 05:44:36;;;;;;;;;;;;;;;;;;5035697;28;19910;-77
2022/06/22 05:47:02;;;;;;;;;;;;;;;;;;5033976;28;19917;-77
2022/06/22 05:49:28;;;;;;;;;;;;;;;;;;5035335;28;19909;-77
2022/06/22 05:51:54;;;;;;;;;;;;;;;;;;5036902;28;19909;-77
2022/06/22 05:54:20;;;;;;;;;;;;;;;;;;5036646;28;20376;-77
2022/06/22 05:56:46;;;;;;;;;;;;;;;;;;5033203;28;19921;-77
2022/06/22 05:59:12;;;;;;;;;;;;;;;;;;5034258;28;19909;-77
2022/06/22 06:01:38;;;;;;;;;;;;;;;;;;5028226;28;19917;-77
2022/06/22 06:04:04;;;;;;;;;;;;;;;;;;5015473;28;19913;-78
2022/06/22 06:06:30;;;;;;;;;;;;;;;;;;5014736;28;19910;-78
2022/06/22 06:08:56;;;;;;;;;;;;;;;;;;5013993;28;19913;-78
2022/06/22 06:11:22;;;;;;;;;;;;;;;;;;5013364;28;19921;-79
2022/06/22 06:13:47;;;;;;;;;;;;;;;;;;5013459;28;19963;-79
2022/06/22 06:16:13;;;;;;;;;;;;;;;;;;5013479;28;20404;-79
2022/06/22 06:18:39;;;;;;;;;;;;;;;;;;5012689;28;20433;-79
2022/06/22 06:21:05;;;;;;;;;;;;;;;;;;5014410;28;19936;-80
2022/06/22 06:23:31;;;;;;;;;;;;;;;;;;5014238;28;20337;-80
2022/06/22 06:28:42;;;;;;;;;;;;;;;;;;5013677;28;19916;-79
2022/06/22 06:31:08;;;;;;;;;;;;;;;;;;5012999;28;19909;-80
2022/06/22 06:33:34;;;;;;;;;;;;;;;;;;5014161;28;19913;-79
2022/06/22 06:36:00;;;;;;;;;;;;;;;;;;5013622;28;20292;-79
2022/06/22 06:38:27;;;;;;;;;;;;;;;;;;5012030;28;20369;-81
2022/06/22 06:40:53;;;;;;;;;;;;;;;;;;5014115;28;19913;-79
2022/06/22 06:43:19;;;;;;;;;;;;;;;;;;5012736;28;19916;-79
2022/06/22 06:45:45;;;;;;;;;;;;;;;;;;5014109;28;19909;-79
2022/06/22 06:48:11;;;;;;;;;;;;;;;;;;5013958;28;19918;-79
2022/06/22 06:50:37;;;;;;;;;;;;;;;;;;5013293;28;19920;-79
2022/06/22 06:53:02;;;;;;;;;;;;;;;;;;5014095;28;19956;-79
2022/06/22 06:55:28;;;;;;;;;;;;;;;;;;5013785;28;19963;-78
2022/06/22 06:57:55;;;;;;;;;;;;;;;;;;5013939;28;19909;-81
2022/06/22 07:00:21;;;;;;;;;;;;;;;;;;5012545;28;19909;-79
2022/06/22 07:02:47;;;;;;;;;;;;;;;;;;5013719;28;19910;-79
2022/06/22 07:05:13;;;;;;;;;;;;;;;;;;5013642;28;19909;-79
2022/06/22 07:07:39;;;;;;;;;;;;;;;;;;5013561;28;19910;-80
2022/06/22 07:10:05;;;;;;;;;;;;;;;;;;5012939;28;19953;-80
2022/06/22 07:12:31;;;;;;;;;;;;;;;;;;5013455;28;19949;-80
2022/06/22 07:14:59;;;;;;;;;;;;;;;;;;5013574;28;19990;-81
2022/06/22 07:17:25;;;;;;;;;;;;;;;;;;5013390;28;20359;-81
2022/06/22 07:19:51;;;;;;;;;;;;;;;;;;5012738;28;20020;-79
2022/06/22 07:22:16;;;;;;;;;;;;;;;;;;5012174;28;20204;-79
2022/06/22 07:24:42;;;;;;;;;;;;;;;;;;5013223;28;19953;-78
2022/06/22 07:27:08;;;;;;;;;;;;;;;;;;5012109;28;19917;-79
2022/06/22 07:29:34;;;;;;;;;;;;;;;;;;5012724;28;19960;-78
2022/06/22 07:32:00;;;;;;;;;;;;;;;;;;5013456;28;19972;-79
2022/06/22 07:34:26;;;;;;;;;;;;;;;;;;5011735;28;20010;-79
2022/06/22 07:36:52;;;;;;;;;;;;;;;;;;5013368;28;19963;-79
2022/06/22 07:39:18;;;;;;;;;;;;;;;;;;5012338;28;19956;-79
2022/06/22 07:41:44;;;;;;;;;;;;;;;;;;5013264;28;19925;-79
2022/06/22 07:44:10;;;;;;;;;;;;;;;;;;5013220;28;19917;-80
2022/06/22 07:46:36;;;;;;;;;;;;;;;;;;5012693;28;19917;-79
2022/06/22 07:49:02;;;;;;;;;;;;;;;;;;5012330;28;19913;-79
2022/06/22 07:51:28;;;;;;;;;;;;;;;;;;5011588;28;19956;-80
2022/06/22 07:53:54;;;;;;;;;;;;;;;;;;5011492;28;19980;-80
2022/06/22 07:56:19;;;;;;;;;;;;;;;;;;5013127;28;19921;-79
2022/06/22 07:58:45;;;;;;;;;;;;;;;;;;5011014;28;19961;-80
2022/06/22 08:01:11;;;;;;;;;;;;;;;;;;5012874;28;19910;-79
2022/06/22 08:03:38;;;;;;;;;;;;;;;;;;5011509;28;20000;-79
2022/06/22 08:06:04;;;;;;;;;;;;;;;;;;5011752;28;20252;-79
2022/06/22 08:08:30;;;;;;;;;;;;;;;;;;5012217;28;20246;-80
2022/06/22 08:10:56;;;;;;;;;;;;;;;;;;5011399;28;19910;-79
2022/06/22 08:13:22;;;;;;;;;;;;;;;;;;5012730;28;19957;-78
2022/06/22 08:15:48;;;;;;;;;;;;;;;;;;5011113;28;20337;-80
2022/06/22 08:18:14;;;;;;;;;;;;;;;;;;5012856;28;19940;-79
2022/06/22 08:20:40;;;;;;;;;;;;;;;;;;5012116;28;20297;-79
2022/06/22 08:23:06;;;;;;;;;;;;;;;;;;5011307;28;20281;-78
2022/06/22 08:25:32;;;;;;;;;;;;;;;;;;5012583;28;20408;-79
2022/06/22 08:27:58;;;;;;;;;;;;;;;;;;5010721;28;20407;-79
2022/06/22 08:30:24;;;;;;;;;;;;;;;;;;5010190;28;20373;-78
2022/06/22 08:32:50;;;;;;;;;;;;;;;;;;5012032;28;20404;-78
2022/06/22 08:35:15;;;;;;;;;;;;;;;;;;5011963;28;19910;-79
2022/06/22 08:37:41;;;;;;;;;;;;;;;;;;5010779;28;20385;-77
2022/06/22 08:40:07;;;;;;;;;;;;;;;;;;5008918;28;19917;-78
2022/06/22 08:42:33;;;;;;;;;;;;;;;;;;5011086;28;19920;-78
2022/06/22 08:44:59;;;;;;;;;;;;;;;;;;5011908;28;19910;-78
2022/06/22 08:47:28;;;;;;;;;;;;;;;;;;5011272;28;19972;-83
2022/06/22 08:49:54;;;;;;;;;;;;;;;;;;5012015;28;19910;-77
2022/06/22 08:52:20;;;;;;;;;;;;;;;;;;5011792;28;19931;-77
2022/06/22 08:54:46;;;;;;;;;;;;;;;;;;5011595;28;20365;-77
2022/06/22 08:57:12;;;;;;;;;;;;;;;;;;5013347;28;19956;-79
2022/06/22 08:59:39;;;;;;;;;;;;;;;;;;5012431;28;19913;-78
2022/06/22 09:02:05;;;;;;;;;;;;;;;;;;5013735;28;19992;-78
2022/06/22 09:04:31;;;;;;;;;;;;;;;;;;5012708;28;19910;-78
2022/06/22 09:06:57;;;;;;;;;;;;;;;;;;5012163;28;20278;-81
2022/06/22 09:09:23;;;;;;;;;;;;;;;;;;5011949;28;20297;-79
2022/06/22 09:11:49;;;;;;;;;;;;;;;;;;5012541;28;19972;-80
2022/06/22 09:14:15;;;;;;;;;;;;;;;;;;5010225;28;19992;-78
2022/06/22 09:16:41;;;;;;;;;;;;;;;;;;5011498;28;19920;-79
2022/06/22 09:19:08;;;;;;;;;;;;;;;;;;5009040;28;19965;-80
2022/06/22 09:21:34;;;;;;;;;;;;;;;;;;5010683;28;20517;-77
2022/06/22 09:24:00;;;;;;;;;;;;;;;;;;5009070;28;19912;-77
2022/06/22 09:26:26;;;;;;;;;;;;;;;;;;5008869;28;19944;-77
2022/06/22 09:28:52;;;;;;;;;;;;;;;;;;5009781;28;20397;-78
2022/06/22 09:31:18;;;;;;;;;;;;;;;;;;5011713;28;20340;-79
2022/06/22 09:33:44;;;;;;;;;;;;;;;;;;5009737;28;19936;-79
2022/06/22 09:36:10;;;;;;;;;;;;;;;;;;5011339;28;20374;-79
2022/06/22 09:38:36;;;;;;;;;;;;;;;;;;5009206;28;20281;-79
2022/06/22 09:41:02;;;;;;;;;;;;;;;;;;5011249;28;19913;-79
2022/06/22 09:43:28;;;;;;;;;;;;;;;;;;5010102;28;20262;-80
2022/06/22 09:45:54;;;;;;;;;;;;;;;;;;5010894;28;20392;-80
2022/06/22 09:48:20;;;;;;;;;;;;;;;;;;5011686;28;19921;-79
2022/06/22 09:50:48;;;;;;;;;;;;;;;;;;5011477;28;19922;-78
2022/06/22 09:53:14;;;;;;;;;;;;;;;;;;5009255;28;19913;-78
2022/06/22 09:58:25;;;;;;;;;;;;;;;;;;5010413;28;19936;-79
2022/06/22 10:00:51;;;;;;;;;;;;;;;;;;5011332;28;19914;-79
2022/06/22 10:03:17;;;;;;;;;;;;;;;;;;5011198;28;20409;-79
2022/06/22 10:05:43;;;;;;;;;;;;;;;;;;5010430;28;19972;-79
2022/06/22 10:08:09;;;;;;;;;;;;;;;;;;5011624;28;19920;-79
2022/06/22 10:10:34;;;;;;;;;;;;;;;;;;5010863;28;19910;-79
2022/06/22 10:13:00;;;;;;;;;;;;;;;;;;5015769;28;19959;-79
2022/06/22 10:15:27;;;;;;;;;;;;;;;;;;5015767;28;19945;-79
2022/06/22 10:17:53;;;;;;;;;;;;;;;;;;5031821;28;19920;-81
2022/06/22 10:20:19;;;;;;;;;;;;;;;;;;5027989;28;19957;-81
2022/06/22 10:22:45;;;;;;;;;;;;;;;;;;5023884;28;20375;-80
2022/06/22 10:25:11;;;;;;;;;;;;;;;;;;5033623;28;19916;-79
2022/06/22 10:27:37;;;;;;;;;;;;;;;;;;5033824;28;20352;-81
2022/06/22 10:30:03;;;;;;;;;;;;;;;;;;5032551;28;20328;-80
2022/06/22 10:32:29;;;;;;;;;;;;;;;;;;5034567;28;19909;-80
2022/06/22 10:34:57;;;;;;;;;;;;;;;;;;5027757;28;20436;-79
2022/06/22 10:37:26;;;;;;;;;;;;;;;;;;5033733;28;19913;-80
2022/06/22 10:39:52;;;;;;;;;;;;;;;;;;5032324;28;19988;-80
2022/06/22 10:45:08;;;;;;;;;;;;;;;;;;5033725;28;20293;-80
2022/06/22 10:47:34;;;;;;;;;;;;;;;;;;5033614;28;20385;-81
2022/06/22 10:50:01;;;;;;;;;;;;;;;;;;5032456;28;19948;-81
2022/06/22 10:52:26;;;;;;;;;;;;;;;;;;5024026;28;19964;-79
2022/06/22 10:54:53;;;;;;;;;;;;;;;;;;5013915;28;19963;-79
2022/06/22 10:57:19;;;;;;;;;;;;;;;;;;5014140;28;19909;-80
2022/06/22 10:59:45;;;;;;;;;;;;;;;;;;5012345;28;20318;-81
2022/06/22 11:02:10;;;;;;;;;;;;;;;;;;5015000;28;19909;-80
2022/06/22 11:04:36;;;;;;;;;;;;;;;;;;5021132;28;19920;-80
2022/06/22 11:07:02;;;;;;;;;;;;;;;;;;5029307;28;20028;-82
2022/06/22 11:09:28;;;;;;;;;;;;;;;;;;5038684;28;20380;-81
2022/06/22 11:11:54;;;;;;;;;;;;;;;;;;5032810;28;19913;-82
2022/06/22 11:14:20;;;;;;;;;;;;;;;;;;5028914;28;20400;-80
2022/06/22 11:16:46;;;;;;;;;;;;;;;;;;5029783;28;19944;-81
2022/06/22 11:19:12;;;;;;;;;;;;;;;;;;5031661;28;20439;-81
2022/06/22 11:21:38;;;;;;;;;;;;;;;;;;5031719;28;20325;-81
2022/06/22 11:24:05;;;;;;;;;;;;;;;;;;5031786;28;19913;-81
2022/06/22 11:32:05;;;;;;;;;;;;;;;;;;5031227;28;19940;-81
2022/06/22 11:34:31;;;;;;;;;;;;;;;;;;5034381;28;20365;-81
2022/06/22 11:36:59;;;;;;;;;;;;;;;;;;5024743;28;20000;-82
2022/06/22 11:39:25;;;;;;;;;;;;;;;;;;5033627;28;20396;-80
2022/06/22 11:41:51;;;;;;;;;;;;;;;;;;5021700;28;19941;-79
2022/06/22 11:44:17;;;;;;;;;;;;;;;;;;5030976;28;19920;-79
2022/06/22 11:46:44;;;;;;;;;;;;;;;;;;5033135;28;19913;-80
2022/06/22 11:49:10;;;;;;;;;;;;;;;;;;5032404;28;19917;-78
2022/06/22 11:51:37;;;;;;;;;;;;;;;;;;5032655;28;19924;-79
2022/06/22 11:54:03;;;;;;;;;;;;;;;;;;5031727;28;20448;-78
2022/06/22 11:56:30;;;;;;;;;;;;;;;;;;5033405;28;20018;-81
2022/06/22 11:58:59;;;;;;;;;;;;;;;;;;5031731;28;20011;-81
2022/06/22 12:01:25;;;;;;;;;;;;;;;;;;5035027;28;19944;-80
2022/06/22 12:03:51;;;;;;;;;;;;;;;;;;5052235;28;20049;-80
2022/06/22 12:06:17;;;;;;;;;;;;;;;;;;5052027;28;19916;-81
2022/06/22 12:08:43;;;;;;;;;;;;;;;;;;5051149;28;20386;-81
2022/06/22 12:11:09;;;;;;;;;;;;;;;;;;5053048;28;20286;-81
2022/06/22 12:13:35;;;;;;;;;;;;;;;;;;5052105;28;19975;-80
2022/06/22 12:16:00;;;;;;;;;;;;;;;;;;5051952;28;19960;-79
2022/06/22 12:18:26;;;;;;;;;;;;;;;;;;5013802;28;19914;-80
2022/06/22 12:20:52;;;;;;;;;;;;;;;;;;5019025;28;19978;-79
2022/06/22 12:23:18;;;;;;;;;;;;;;;;;;5051238;28;20011;-80
2022/06/22 12:25:44;;;;;;;;;;;;;;;;;;5050158;28;19948;-80
2022/06/22 12:28:10;;;;;;;;;;;;;;;;;;5052715;28;19912;-79
2022/06/22 12:30:36;;;;;;;;;;;;;;;;;;5041862;28;19987;-79
2022/06/22 12:33:02;;;;;;;;;;;;;;;;;;5032359;28;19923;-79
2022/06/22 12:35:31;;;;;;;;;;;;;;;;;;5011128;28;19916;-80
2022/06/22 12:37:57;;;;;;;;;;;;;;;;;;5012609;28;19916;-80
2022/06/22 12:40:23;;;;;;;;;;;;;;;;;;5010035;28;20028;-78
2022/06/22 12:42:49;;;;;;;;;;;;;;;;;;5023444;28;19913;-79
2022/06/22 12:45:14;;;;;;;;;;;;;;;;;;5028610;28;19909;-78
2022/06/22 12:47:40;;;;;;;;;;;;;;;;;;5046156;28;19962;-78
2022/06/22 12:50:06;;;;;;;;;;;;;;;;;;5034000;28;19909;-79
2022/06/22 12:52:32;;;;;;;;;;;;;;;;;;5022589;28;19913;-81
2022/06/22 12:54:58;;;;;;;;;;;;;;;;;;5052009;28;19948;-78
2022/06/22 12:57:24;;;;;;;;;;;;;;;;;;5049672;28;19959;-79
2022/06/22 12:59:51;;;;;;;;;;;;;;;;;;5050526;28;20334;-79
2022/06/22 13:02:17;;;;;;;;;;;;;;;;;;5036581;28;20807;-78
2022/06/22 13:04:43;;;;;;;;;;;;;;;;;;5030648;28;19960;-79
2022/06/22 13:07:09;;;;;;;;;;;;;;;;;;5033091;28;19920;-79
2022/06/22 13:09:35;;;;;;;;;;;;;;;;;;5011860;28;19996;-79
2022/06/22 13:12:01;;;;;;;;;;;;;;;;;;5046958;28;19955;-79
2022/06/22 13:14:27;;;;;;;;;;;;;;;;;;5043150;28;19925;-79
2022/06/22 13:16:53;;;;;;;;;;;;;;;;;;5030739;28;19990;-79
2022/06/22 13:19:19;;;;;;;;;;;;;;;;;;5031246;28;19919;-80
2022/06/22 13:21:45;;;;;;;;;;;;;;;;;;5032255;28;20317;-80
2022/06/22 13:24:11;;;;;;;;;;;;;;;;;;5029411;28;19953;-78
2022/06/22 13:26:39;;;;;;;;;;;;;;;;;;5011494;28;19921;-81
2022/06/22 13:29:05;;;;;;;;;;;;;;;;;;5011782;28;19993;-80
2022/06/22 13:31:31;;;;;;;;;;;;;;;;;;5011648;28;19943;-80
2022/06/22 13:33:57;;;;;;;;;;;;;;;;;;5020048;28;20019;-79
2022/06/22 13:36:23;;;;;;;;;;;;;;;;;;5051496;28;20004;-80
2022/06/22 13:38:49;;;;;;;;;;;;;;;;;;5035261;28;19992;-79
2022/06/22 13:41:15;;;;;;;;;;;;;;;;;;5029511;28;19944;-78
2022/06/22 13:43:41;;;;;;;;;;;;;;;;;;5010800;28;19955;-79
2022/06/22 13:46:07;;;;;;;;;;;;;;;;;;5016546;28;19972;-80
2022/06/22 13:48:33;;;;;;;;;;;;;;;;;;5025564;28;20351;-79
2022/06/22 13:51:12;;;;;;;;;;;;;;;;;;5031422;28;19951;-79
2022/06/22 13:53:41;;;;;;;;;;;;;;;;;;5037295;28;19920;-80
2022/06/22 13:56:07;;;;;;;;;;;;;;;;;;5036534;28;19909;-80
2022/06/22 13:58:33;;;;;;;;;;;;;;;;;;5033641;28;19939;-79
2022/06/22 14:00:59;;;;;;;;;;;;;;;;;;5036087;28;19909;-80
2022/06/22 14:03:25;;;;;;;;;;;;;;;;;;5037032;28;19909;-79
2022/06/22 14:05:51;;;;;;;;;;;;;;;;;;5036728;28;20446;-80
2022/06/22 14:08:17;;;;;;;;;;;;;;;;;;5035621;28;19936;-80
2022/06/22 14:10:43;;;;;;;;;;;;;;;;;;5033492;28;19913;-80
2022/06/22 14:13:09;;;;;;;;;;;;;;;;;;5033000;28;19997;-79
2022/06/22 14:15:35;;;;;;;;;;;;;;;;;;5034300;28;20369;-78
2022/06/22 14:18:01;;;;;;;;;;;;;;;;;;5033266;28;20008;-79
2022/06/22 14:20:27;;;;;;;;;;;;;;;;;;5036416;28;19949;-79
2022/06/22 14:22:52;;;;;;;;;;;;;;;;;;5038028;28;19939;-80
2022/06/22 14:25:18;;;;;;;;;;;;;;;;;;5036050;28;19909;-80
2022/06/22 14:27:44;;;;;;;;;;;;;;;;;;5038439;28;20389;-79
2022/06/22 14:30:10;;;;;;;;;;;;;;;;;;5035900;28;19920;-80
2022/06/22 14:32:36;;;;;;;;;;;;;;;;;;5037031;28;20438;-77
2022/06/22 14:35:02;;;;;;;;;;;;;;;;;;5031951;28;19972;-80
2022/06/22 14:37:28;;;;;;;;;;;;;;;;;;5032593;28;19909;-81
2022/06/22 14:39:54;;;;;;;;;;;;;;;;;;5034244;28;19971;-80
2022/06/22 14:42:20;;;;;;;;;;;;;;;;;;5033183;28;19963;-81
2022/06/22 14:44:47;;;;;;;;;;;;;;;;;;5034603;28;19917;-79
2022/06/22 14:47:13;;;;;;;;;;;;;;;;;;5034107;28;20003;-79
2022/06/22 14:49:39;;;;;;;;;;;;;;;;;;5032747;28;20067;-79
2022/06/22 14:52:05;;;;;;;;;;;;;;;;;;5034542;28;19992;-79
2022/06/22 14:54:31;;;;;;;;;;;;;;;;;;5033828;28;20412;-79
2022/06/22 14:56:57;;;;;;;;;;;;;;;;;;5032043;28;19975;-78
2022/06/22 14:59:23;;;;;;;;;;;;;;;;;;5034520;28;19913;-79
2022/06/22 15:01:49;;;;;;;;;;;;;;;;;;5033467;28;19960;-79
2022/06/22 15:04:15;;;;;;;;;;;;;;;;;;5034166;28;19913;-79
2022/06/22 15:06:41;;;;;;;;;;;;;;;;;;5036293;28;19913;-79
2022/06/22 15:09:07;;;;;;;;;;;;;;;;;;5034419;28;20051;-79
2022/06/22 15:14:18;;;;;;;;;;;;;;;;;;5035460;28;19959;-79
2022/06/22 15:16:44;;;;;;;;;;;;;;;;;;5033415;28;20365;-78
2022/06/22 15:19:10;;;;;;;;;;;;;;;;;;5033863;28;19920;-79
2022/06/22 15:21:36;;;;;;;;;;;;;;;;;;5033603;28;19910;-80
2022/06/22 15:24:02;;;;;;;;;;;;;;;;;;5033654;28;19913;-80
2022/06/22 15:26:33;;;;;;;;;;;;;;;;;;5031513;28;19952;-81
2022/06/22 15:29:01;;;;;;;;;;;;;;;;;;5030503;28;19909;-80
2022/06/22 15:31:27;;;;;;;;;;;;;;;;;;5032593;28;20309;-80
2022/06/22 15:33:53;;;;;;;;;;;;;;;;;;5033695;28;19960;-79
2022/06/22 15:36:19;;;;;;;;;;;;;;;;;;5033992;28;20262;-79
2022/06/22 15:38:45;;;;;;;;;;;;;;;;;;5035054;28;20840;-81
2022/06/22 15:41:11;;;;;;;;;;;;;;;;;;5032017;28;20285;-80
2022/06/22 15:43:37;;;;;;;;;;;;;;;;;;5035417;28;19917;-80
2022/06/22 15:46:03;;;;;;;;;;;;;;;;;;5033216;28;19909;-79
2022/06/22 15:48:29;;;;;;;;;;;;;;;;;;5033861;28;19917;-81
2022/06/22 15:50:55;;;;;;;;;;;;;;;;;;5037573;28;20011;-80
2022/06/22 15:53:21;;;;;;;;;;;;;;;;;;5035755;28;20395;-80
2022/06/22 15:55:47;;;;;;;;;;;;;;;;;;5032925;28;19913;-79
2022/06/22 15:58:13;;;;;;;;;;;;;;;;;;5032991;28;20368;-79
2022/06/22 16:00:39;;;;;;;;;;;;;;;;;;5034180;28;19967;-80
2022/06/22 16:03:05;;;;;;;;;;;;;;;;;;5033866;28;19963;-80
2022/06/22 16:05:31;;;;;;;;;;;;;;;;;;5032163;28;19909;-79
2022/06/22 16:07:57;;;;;;;;;;;;;;;;;;5031042;28;19913;-81
2022/06/22 16:10:23;;;;;;;;;;;;;;;;;;5029715;28;20068;-77
2022/06/22 16:15:34;;;;;;;;;;;;;;;;;;5031273;28;20380;-83
2022/06/22 16:18:00;;;;;;;;;;;;;;;;;;5031453;28;19909;-80
2022/06/22 16:20:26;;;;;;;;;;;;;;;;;;5031675;28;19923;-80
2022/06/22 16:22:52;;;;;;;;;;;;;;;;;;5031760;28;20374;-80
2022/06/22 16:25:17;;;;;;;;;;;;;;;;;;5032626;28;19913;-81
2022/06/22 16:27:43;;;;;;;;;;;;;;;;;;5029716;28;19948;-80
2022/06/22 16:30:09;;;;;;;;;;;;;;;;;;5036108;28;19936;-81
2022/06/22 16:32:35;;;;;;;;;;;;;;;;;;5033179;28;20262;-80
2022/06/22 16:35:01;;;;;;;;;;;;;;;;;;5032384;28;19964;-78
2022/06/22 16:37:27;;;;;;;;;;;;;;;;;;5030324;28;19953;-81
2022/06/22 16:39:53;;;;;;;;;;;;;;;;;;5030453;28;20369;-81
2022/06/22 16:42:19;;;;;;;;;;;;;;;;;;5031378;28;20082;-78
2022/06/22 16:44:45;;;;;;;;;;;;;;;;;;5030367;28;19999;-78
2022/06/22 16:47:11;;;;;;;;;;;;;;;;;;5028725;28;19972;-78
2022/06/22 16:49:38;;;;;;;;;;;;;;;;;;5029615;28;19948;-79
2022/06/22 16:52:04;;;;;;;;;;;;;;;;;;5028748;28;20000;-78
2022/06/22 16:54:30;;;;;;;;;;;;;;;;;;5030476;28;20016;-79
2022/06/22 16:56:56;;;;;;;;;;;;;;;;;;5030253;28;19944;-78
2022/06/22 16:59:23;;;;;;;;;;;;;;;;;;5029669;28;19913;-80
2022/06/22 17:01:49;;;;;;;;;;;;;;;;;;5033247;28;20415;-81